sensor_id;sensor_type;location;lat;lon;timestamp;pressure;altitude;pressure_sealevel;temperature;humidity
50710;BME280;37033;49.994;21.992;2022-07-10T00:00:51;99257.21;;;14.92;76.94
50710;BME280;37033;49.994;21.992;2022-07-10T00:03:42;99256.01;;;14.92;76.95
50710;BME280;37033;49.994;21.992;2022-07-10T00:06:34;99255.46;;;14.92;77.07
50710;BME280;37033;49.994;21.992;2022-07-10T00:09:24;99254.74;;;14.92;77.06
50710;BME280;37033;49.994;21.992;2022-07-10T00:12:16;99254.53;;;14.91;77.14
50710;BME280;37033;49.994;21.992;2022-07-10T00:15:09;99253.15;;;14.88;77.17
50710;BME280;37033;49.994;21.992;2022-07-10T00:17:59;99250.09;;;14.86;77.07
50710;BME280;37033;49.994;21.992;2022-07-10T00:20:50;99251.02;;;14.83;77.23
50710;BME280;37033;49.994;21.992;2022-07-10T00:23:40;99247.67;;;14.77;77.13
50710;BME280;37033;49.994;21.992;2022-07-10T00:26:31;99245.75;;;14.72;77.28
50710;BME280;37033;49.994;21.992;2022-07-10T00:29:21;99243.94;;;14.71;77.37
50710;BME280;37033;49.994;21.992;2022-07-10T00:32:12;99237.23;;;14.70;77.36
50710;BME280;37033;49.994;21.992;2022-07-10T00:35:03;99233.98;;;14.70;77.39
50710;BME280;37033;49.994;21.992;2022-07-10T00:37:53;99231.64;;;14.69;77.43
50710;BME280;37033;49.994;21.992;2022-07-10T00:40:44;99228.85;;;14.67;77.40
50710;BME280;37033;49.994;21.992;2022-07-10T00:43:52;99230.04;;;14.64;77.45
50710;BME280;37033;49.994;21.992;2022-07-10T00:46:43;99223.80;;;14.60;77.54
50710;BME280;37033;49.994;21.992;2022-07-10T00:49:34;99220.80;;;14.60;77.60
50710;BME280;37033;49.994;21.992;2022-07-10T00:52:25;99218.17;;;14.58;77.61
50710;BME280;37033;49.994;21.992;2022-07-10T00:55:16;99219.25;;;14.57;77.63
50710;BME280;37033;49.994;21.992;2022-07-10T00:58:08;99218.52;;;14.53;77.64
50710;BME280;37033;49.994;21.992;2022-07-10T01:01:02;99214.02;;;14.51;77.64
50710;BME280;37033;49.994;21.992;2022-07-10T01:03:53;99213.59;;;14.49;77.68
50710;BME280;37033;49.994;21.992;2022-07-10T01:06:44;99211.35;;;14.46;77.76
50710;BME280;37033;49.994;21.992;2022-07-10T01:09:35;99212.27;;;14.44;77.76
50710;BME280;37033;49.994;21.992;2022-07-10T01:12:27;99209.38;;;14.40;77.73
50710;BME280;37033;49.994;21.992;2022-07-10T01:15:18;99212.27;;;14.37;77.61
50710;BME280;37033;49.994;21.992;2022-07-10T01:18:08;99203.60;;;14.35;77.60
50710;BME280;37033;49.994;21.992;2022-07-10T01:20:59;99199.33;;;14.30;77.58
50710;BME280;37033;49.994;21.992;2022-07-10T01:23:50;99202.39;;;14.24;77.47
50710;BME280;37033;49.994;21.992;2022-07-10T01:26:41;99203.57;;;14.19;77.34
50710;BME280;37033;49.994;21.992;2022-07-10T01:29:31;99200.45;;;14.16;77.25
50710;BME280;37033;49.994;21.992;2022-07-10T01:32:22;99201.70;;;14.12;77.21
50710;BME280;37033;49.994;21.992;2022-07-10T01:35:13;99195.17;;;14.06;77.25
50710;BME280;37033;49.994;21.992;2022-07-10T01:38:04;99187.61;;;13.97;77.26
50710;BME280;37033;49.994;21.992;2022-07-10T01:40:54;99185.28;;;13.88;77.33
50710;BME280;37033;49.994;21.992;2022-07-10T01:43:45;99184.65;;;13.80;77.34
50710;BME280;37033;49.994;21.992;2022-07-10T01:46:36;99183.93;;;13.74;77.53
50710;BME280;37033;49.994;21.992;2022-07-10T01:49:32;99178.23;;;13.69;77.49
50710;BME280;37033;49.994;21.992;2022-07-10T01:52:22;99172.69;;;13.64;77.53
50710;BME280;37033;49.994;21.992;2022-07-10T01:55:13;99166.17;;;13.60;77.46
50710;BME280;37033;49.994;21.992;2022-07-10T01:58:03;99162.92;;;13.55;77.48
50710;BME280;37033;49.994;21.992;2022-07-10T02:00:53;99158.05;;;13.52;77.65
50710;BME280;37033;49.994;21.992;2022-07-10T02:03:44;99160.00;;;13.49;77.68
50710;BME280;37033;49.994;21.992;2022-07-10T02:06:52;99158.18;;;13.44;77.70
50710;BME280;37033;49.994;21.992;2022-07-10T02:09:43;99163.02;;;13.40;77.75
50710;BME280;37033;49.994;21.992;2022-07-10T02:12:33;99163.52;;;13.39;77.89
50710;BME280;37033;49.994;21.992;2022-07-10T02:15:24;99160.34;;;13.37;77.85
50710;BME280;37033;49.994;21.992;2022-07-10T02:18:15;99162.52;;;13.35;77.90
50710;BME280;37033;49.994;21.992;2022-07-10T02:21:06;99160.49;;;13.35;78.00
50710;BME280;37033;49.994;21.992;2022-07-10T02:23:58;99162.55;;;13.34;78.06
50710;BME280;37033;49.994;21.992;2022-07-10T02:26:49;99161.73;;;13.34;78.02
50710;BME280;37033;49.994;21.992;2022-07-10T02:29:39;99159.50;;;13.35;78.09
50710;BME280;37033;49.994;21.992;2022-07-10T02:32:30;99156.11;;;13.35;78.14
50710;BME280;37033;49.994;21.992;2022-07-10T02:35:20;99156.17;;;13.34;78.22
50710;BME280;37033;49.994;21.992;2022-07-10T02:38:11;99158.95;;;13.35;78.18
50710;BME280;37033;49.994;21.992;2022-07-10T02:41:02;99159.02;;;13.35;78.30
50710;BME280;37033;49.994;21.992;2022-07-10T02:43:53;99159.52;;;13.36;78.34
50710;BME280;37033;49.994;21.992;2022-07-10T02:46:44;99155.23;;;13.34;78.34
50710;BME280;37033;49.994;21.992;2022-07-10T02:49:34;99155.91;;;13.35;78.41
50710;BME280;37033;49.994;21.992;2022-07-10T02:52:25;99154.45;;;13.36;78.57
50710;BME280;37033;49.994;21.992;2022-07-10T02:55:16;99155.32;;;13.38;78.49
50710;BME280;37033;49.994;21.992;2022-07-10T02:58:06;99162.52;;;13.39;78.57
50710;BME280;37033;49.994;21.992;2022-07-10T03:00:58;99157.29;;;13.41;78.58
50710;BME280;37033;49.994;21.992;2022-07-10T03:03:49;99158.83;;;13.42;78.67
50710;BME280;37033;49.994;21.992;2022-07-10T03:06:39;99156.20;;;13.41;78.77
50710;BME280;37033;49.994;21.992;2022-07-10T03:09:30;99154.27;;;13.40;78.91
50710;BME280;37033;49.994;21.992;2022-07-10T03:12:20;99150.52;;;13.39;78.92
50710;BME280;37033;49.994;21.992;2022-07-10T03:15:11;99153.13;;;13.38;79.00
50710;BME280;37033;49.994;21.992;2022-07-10T03:18:02;99145.59;;;13.37;79.13
50710;BME280;37033;49.994;21.992;2022-07-10T03:20:52;99140.85;;;13.38;79.24
50710;BME280;37033;49.994;21.992;2022-07-10T03:23:43;99140.14;;;13.39;79.32
50710;BME280;37033;49.994;21.992;2022-07-10T03:26:33;99141.84;;;13.41;79.43
50710;BME280;37033;49.994;21.992;2022-07-10T03:29:24;99138.30;;;13.43;79.37
50710;BME280;37033;49.994;21.992;2022-07-10T03:32:14;99138.96;;;13.45;79.50
50710;BME280;37033;49.994;21.992;2022-07-10T03:35:06;99139.52;;;13.47;79.57
50710;BME280;37033;49.994;21.992;2022-07-10T03:37:57;99137.51;;;13.48;79.61
50710;BME280;37033;49.994;21.992;2022-07-10T03:40:47;99141.33;;;13.50;79.79
50710;BME280;37033;49.994;21.992;2022-07-10T03:43:38;99133.81;;;13.54;79.88
50710;BME280;37033;49.994;21.992;2022-07-10T03:46:28;99130.06;;;13.55;79.96
50710;BME280;37033;49.994;21.992;2022-07-10T03:49:18;99130.65;;;13.55;79.94
50710;BME280;37033;49.994;21.992;2022-07-10T03:52:09;99129.77;;;13.55;79.97
50710;BME280;37033;49.994;21.992;2022-07-10T03:54:59;99122.41;;;13.56;80.11
50710;BME280;37033;49.994;21.992;2022-07-10T03:57:50;99128.42;;;13.56;80.08
50710;BME280;37033;49.994;21.992;2022-07-10T04:00:48;99128.37;;;13.58;80.18
50710;BME280;37033;49.994;21.992;2022-07-10T04:03:38;99126.25;;;13.59;80.08
50710;BME280;37033;49.994;21.992;2022-07-10T04:06:30;99126.79;;;13.60;80.24
50710;BME280;37033;49.994;21.992;2022-07-10T04:09:20;99122.43;;;13.61;80.30
50710;BME280;37033;49.994;21.992;2022-07-10T04:12:11;99120.41;;;13.64;80.40
50710;BME280;37033;49.994;21.992;2022-07-10T04:15:01;99114.45;;;13.66;80.45
50710;BME280;37033;49.994;21.992;2022-07-10T04:17:52;99116.83;;;13.68;80.43
50710;BME280;37033;49.994;21.992;2022-07-10T04:20:43;99122.08;;;13.71;80.59
50710;BME280;37033;49.994;21.992;2022-07-10T04:23:35;99120.83;;;13.75;80.65
50710;BME280;37033;49.994;21.992;2022-07-10T04:26:25;99116.59;;;13.81;80.61
50710;BME280;37033;49.994;21.992;2022-07-10T04:29:16;99110.69;;;13.84;80.70
50710;BME280;37033;49.994;21.992;2022-07-10T04:32:08;99111.68;;;13.86;80.46
50710;BME280;37033;49.994;21.992;2022-07-10T04:34:58;99108.02;;;13.88;80.54
50710;BME280;37033;49.994;21.992;2022-07-10T04:37:49;99104.03;;;13.91;80.50
50710;BME280;37033;49.994;21.992;2022-07-10T04:40:39;99104.21;;;13.96;80.59
50710;BME280;37033;49.994;21.992;2022-07-10T04:43:31;99103.61;;;14.04;80.77
50710;BME280;37033;49.994;21.992;2022-07-10T04:46:22;99101.01;;;14.12;80.82
50710;BME280;37033;49.994;21.992;2022-07-10T04:49:12;99096.36;;;14.23;80.80
50710;BME280;37033;49.994;21.992;2022-07-10T04:52:03;99090.52;;;14.35;80.86
50710;BME280;37033;49.994;21.992;2022-07-10T04:54:54;99085.76;;;14.51;80.97
50710;BME280;37033;49.994;21.992;2022-07-10T04:57:44;99083.95;;;14.70;80.96
50710;BME280;37033;49.994;21.992;2022-07-10T05:00:34;99077.41;;;14.88;81.00
50710;BME280;37033;49.994;21.992;2022-07-10T05:03:25;99073.04;;;15.08;80.52
50710;BME280;37033;49.994;21.992;2022-07-10T05:06:15;99075.09;;;15.28;80.40
50710;BME280;37033;49.994;21.992;2022-07-10T05:09:06;99080.39;;;15.53;80.46
50710;BME280;37033;49.994;21.992;2022-07-10T05:11:57;99078.75;;;15.79;79.91
50710;BME280;37033;49.994;21.992;2022-07-10T05:14:47;99076.74;;;16.01;79.12
50710;BME280;37033;49.994;21.992;2022-07-10T05:17:37;99079.45;;;16.22;78.58
50710;BME280;37033;49.994;21.992;2022-07-10T05:20:27;99076.88;;;16.46;78.01
50710;BME280;37033;49.994;21.992;2022-07-10T05:23:18;99078.34;;;16.74;77.48
50710;BME280;37033;49.994;21.992;2022-07-10T05:26:08;99076.77;;;17.04;77.24
50710;BME280;37033;49.994;21.992;2022-07-10T05:28:59;99078.97;;;17.28;76.02
50710;BME280;37033;49.994;21.992;2022-07-10T05:31:49;99076.67;;;17.41;74.78
50710;BME280;37033;49.994;21.992;2022-07-10T05:34:40;99076.30;;;17.48;74.13
50710;BME280;37033;49.994;21.992;2022-07-10T05:37:30;99075.69;;;17.56;73.93
50710;BME280;37033;49.994;21.992;2022-07-10T05:40:22;99076.77;;;17.67;73.25
50710;BME280;37033;49.994;21.992;2022-07-10T05:43:12;99075.67;;;17.78;73.11
50710;BME280;37033;49.994;21.992;2022-07-10T05:46:03;99079.85;;;17.91;71.78
50710;BME280;37033;49.994;21.992;2022-07-10T05:48:54;99081.27;;;17.88;71.32
50710;BME280;37033;49.994;21.992;2022-07-10T05:51:45;99079.12;;;17.85;71.02
50710;BME280;37033;49.994;21.992;2022-07-10T05:54:36;99080.75;;;17.81;70.94
50710;BME280;37033;49.994;21.992;2022-07-10T05:57:27;99077.58;;;17.76;70.74
50710;BME280;37033;49.994;21.992;2022-07-10T06:00:20;99080.52;;;17.76;70.80
50710;BME280;37033;49.994;21.992;2022-07-10T06:03:10;99076.09;;;17.71;70.42
50710;BME280;37033;49.994;21.992;2022-07-10T06:06:01;99074.17;;;17.71;70.49
50710;BME280;37033;49.994;21.992;2022-07-10T06:08:51;99075.95;;;17.74;70.44
50710;BME280;37033;49.994;21.992;2022-07-10T06:11:41;99075.84;;;17.81;70.34
50710;BME280;37033;49.994;21.992;2022-07-10T06:14:32;99076.98;;;17.84;69.90
50710;BME280;37033;49.994;21.992;2022-07-10T06:17:23;99078.64;;;17.78;69.60
50710;BME280;37033;49.994;21.992;2022-07-10T06:20:14;99080.48;;;17.69;69.28
50710;BME280;37033;49.994;21.992;2022-07-10T06:23:04;99077.41;;;17.60;69.21
50710;BME280;37033;49.994;21.992;2022-07-10T06:25:55;99076.58;;;17.61;69.47
50710;BME280;37033;49.994;21.992;2022-07-10T06:28:45;99075.63;;;17.62;68.98
50710;BME280;37033;49.994;21.992;2022-07-10T06:31:36;99075.52;;;17.65;69.14
50710;BME280;37033;49.994;21.992;2022-07-10T06:34:26;99075.05;;;17.68;68.88
50710;BME280;37033;49.994;21.992;2022-07-10T06:37:17;99071.33;;;17.78;69.10
50710;BME280;37033;49.994;21.992;2022-07-10T06:40:10;99067.39;;;17.85;68.64
50710;BME280;37033;49.994;21.992;2022-07-10T06:43:02;99064.75;;;17.97;68.95
50710;BME280;37033;49.994;21.992;2022-07-10T06:45:53;99059.89;;;18.26;69.01
50710;BME280;37033;49.994;21.992;2022-07-10T06:48:44;99059.27;;;18.53;68.60
50710;BME280;37033;49.994;21.992;2022-07-10T06:51:35;99054.02;;;18.70;67.82
50710;BME280;37033;49.994;21.992;2022-07-10T06:54:26;99053.13;;;18.87;67.39
50710;BME280;37033;49.994;21.992;2022-07-10T06:57:17;99049.19;;;19.05;67.11
50710;BME280;37033;49.994;21.992;2022-07-10T07:00:09;99046.70;;;19.20;67.24
50710;BME280;37033;49.994;21.992;2022-07-10T07:03:00;99048.64;;;19.61;67.16
50710;BME280;37033;49.994;21.992;2022-07-10T07:05:51;99041.95;;;19.87;65.24
50710;BME280;37033;49.994;21.992;2022-07-10T07:08:42;99041.03;;;20.05;65.54
50710;BME280;37033;49.994;21.992;2022-07-10T07:11:33;99040.38;;;20.25;65.07
50710;BME280;37033;49.994;21.992;2022-07-10T07:14:23;99035.85;;;20.40;65.24
50710;BME280;37033;49.994;21.992;2022-07-10T07:17:15;99036.12;;;20.93;65.90
50710;BME280;37033;49.994;21.992;2022-07-10T07:20:12;99028.08;;;21.38;65.53
50710;BME280;37033;49.994;21.992;2022-07-10T07:23:21;99028.11;;;21.87;63.51
50710;BME280;37033;49.994;21.992;2022-07-10T07:26:11;99026.83;;;22.15;60.59
50710;BME280;37033;49.994;21.992;2022-07-10T07:29:01;99024.33;;;22.32;59.18
50710;BME280;37033;49.994;21.992;2022-07-10T07:31:52;99020.20;;;22.45;58.54
50710;BME280;37033;49.994;21.992;2022-07-10T07:34:44;99015.92;;;22.76;60.27
50710;BME280;37033;49.994;21.992;2022-07-10T07:37:41;99015.50;;;23.07;58.88
50710;BME280;37033;49.994;21.992;2022-07-10T07:40:33;99014.56;;;23.41;57.39
50710;BME280;37033;49.994;21.992;2022-07-10T07:43:26;99016.20;;;23.44;55.01
50710;BME280;37033;49.994;21.992;2022-07-10T07:46:16;99014.13;;;23.30;52.93
50710;BME280;37033;49.994;21.992;2022-07-10T07:49:07;99017.20;;;22.96;51.45
50710;BME280;37033;49.994;21.992;2022-07-10T07:51:57;99012.89;;;22.77;53.40
50710;BME280;37033;49.994;21.992;2022-07-10T07:54:49;99013.65;;;22.85;52.89
50710;BME280;37033;49.994;21.992;2022-07-10T07:57:40;99011.16;;;22.79;52.55
50710;BME280;37033;49.994;21.992;2022-07-10T08:00:32;99008.79;;;22.70;52.84
50710;BME280;37033;49.994;21.992;2022-07-10T08:03:22;99002.73;;;22.65;52.66
50710;BME280;37033;49.994;21.992;2022-07-10T08:06:12;99003.20;;;22.86;53.67
50710;BME280;37033;49.994;21.992;2022-07-10T08:09:03;99002.66;;;23.21;51.66
50710;BME280;37033;49.994;21.992;2022-07-10T08:11:54;99001.10;;;23.08;51.12
50710;BME280;37033;49.994;21.992;2022-07-10T08:14:45;99000.89;;;22.98;51.03
50710;BME280;37033;49.994;21.992;2022-07-10T08:17:36;99012.55;;;22.71;51.48
50710;BME280;37033;49.994;21.992;2022-07-10T08:20:28;99034.17;;;22.27;51.37
50710;BME280;37033;49.994;21.992;2022-07-10T08:23:18;99042.58;;;21.37;53.15
50710;BME280;37033;49.994;21.992;2022-07-10T08:26:08;99061.81;;;20.46;55.45
50710;BME280;37033;49.994;21.992;2022-07-10T08:28:59;99077.43;;;19.68;57.25
50710;BME280;37033;49.994;21.992;2022-07-10T08:31:49;99099.30;;;18.85;57.91
50710;BME280;37033;49.994;21.992;2022-07-10T08:34:40;99099.55;;;18.01;59.85
50710;BME280;37033;49.994;21.992;2022-07-10T08:37:31;99101.00;;;17.51;61.38
50710;BME280;37033;49.994;21.992;2022-07-10T08:40:26;99116.02;;;17.21;62.84
50710;BME280;37033;49.994;21.992;2022-07-10T08:43:24;99125.55;;;16.78;63.75
50710;BME280;37033;49.994;21.992;2022-07-10T08:46:15;99133.50;;;16.54;64.53
50710;BME280;37033;49.994;21.992;2022-07-10T08:49:09;99140.98;;;16.29;65.45
50710;BME280;37033;49.994;21.992;2022-07-10T08:52:04;99145.83;;;16.10;66.14
50710;BME280;37033;49.994;21.992;2022-07-10T08:54:55;99151.12;;;15.97;66.65
50710;BME280;37033;49.994;21.992;2022-07-10T08:57:46;99146.77;;;15.78;67.54
50710;BME280;37033;49.994;21.992;2022-07-10T09:00:36;99144.09;;;15.60;67.91
50710;BME280;37033;49.994;21.992;2022-07-10T09:03:27;99142.77;;;15.46;68.45
50710;BME280;37033;49.994;21.992;2022-07-10T09:06:19;99144.73;;;15.34;68.78
50710;BME280;37033;49.994;21.992;2022-07-10T09:09:10;99142.96;;;15.27;69.31
50710;BME280;37033;49.994;21.992;2022-07-10T09:12:01;99140.29;;;15.19;69.37
50710;BME280;37033;49.994;21.992;2022-07-10T09:14:52;99141.83;;;15.18;69.16
50710;BME280;37033;49.994;21.992;2022-07-10T09:17:53;99143.23;;;15.24;69.13
50710;BME280;37033;49.994;21.992;2022-07-10T09:20:44;99146.65;;;15.29;69.00
50710;BME280;37033;49.994;21.992;2022-07-10T09:23:35;99145.27;;;15.39;69.05
50710;BME280;37033;49.994;21.992;2022-07-10T09:26:25;99141.05;;;15.50;69.07
50710;BME280;37033;49.994;21.992;2022-07-10T09:29:15;99141.48;;;15.66;69.03
50710;BME280;37033;49.994;21.992;2022-07-10T09:32:07;99144.85;;;15.81;69.17
50710;BME280;37033;49.994;21.992;2022-07-10T09:35:00;99147.63;;;15.93;68.76
50710;BME280;37033;49.994;21.992;2022-07-10T09:38:21;99145.00;;;16.03;69.02
50710;BME280;37033;49.994;21.992;2022-07-10T09:41:14;99140.52;;;16.24;69.07
50710;BME280;37033;49.994;21.992;2022-07-10T09:44:06;99141.18;;;16.39;69.15
50710;BME280;37033;49.994;21.992;2022-07-10T09:46:58;99139.44;;;16.37;68.63
50710;BME280;37033;49.994;21.992;2022-07-10T09:49:49;99135.68;;;16.42;69.02
50710;BME280;37033;49.994;21.992;2022-07-10T09:52:40;99135.41;;;16.55;68.97
50710;BME280;37033;49.994;21.992;2022-07-10T09:55:33;99137.09;;;16.79;69.25
50710;BME280;37033;49.994;21.992;2022-07-10T09:58:25;99138.09;;;17.06;68.88
50710;BME280;37033;49.994;21.992;2022-07-10T10:01:20;99132.70;;;17.19;68.08
50710;BME280;37033;49.994;21.992;2022-07-10T10:04:12;99127.08;;;17.39;68.45
50710;BME280;37033;49.994;21.992;2022-07-10T10:07:03;99122.78;;;17.88;68.84
50710;BME280;37033;49.994;21.992;2022-07-10T10:09:54;99122.56;;;18.26;67.27
50710;BME280;37033;49.994;21.992;2022-07-10T10:12:52;99121.35;;;18.41;65.87
50710;BME280;37033;49.994;21.992;2022-07-10T10:15:45;99113.76;;;18.37;64.07
50710;BME280;37033;49.994;21.992;2022-07-10T10:18:37;99104.70;;;18.18;63.96
50710;BME280;37033;49.994;21.992;2022-07-10T10:21:49;99095.27;;;18.17;64.68
50710;BME280;37033;49.994;21.992;2022-07-10T10:24:40;99094.81;;;18.31;64.27
50710;BME280;37033;49.994;21.992;2022-07-10T10:27:30;99092.39;;;18.38;63.45
50710;BME280;37033;49.994;21.992;2022-07-10T10:30:21;99093.52;;;18.26;62.94
50710;BME280;37033;49.994;21.992;2022-07-10T10:33:43;99091.82;;;18.18;63.15
50710;BME280;37033;49.994;21.992;2022-07-10T10:36:48;99078.65;;;18.37;63.12
50710;BME280;37033;49.994;21.992;2022-07-10T10:39:54;99074.58;;;18.66;63.41
50710;BME280;37033;49.994;21.992;2022-07-10T10:42:45;99071.98;;;18.98;62.66
50710;BME280;37033;49.994;21.992;2022-07-10T10:45:37;99070.27;;;19.07;61.10
50710;BME280;37033;49.994;21.992;2022-07-10T10:48:28;99067.36;;;18.97;59.83
50710;BME280;37033;49.994;21.992;2022-07-10T10:51:18;99058.40;;;19.11;60.50
50710;BME280;37033;49.994;21.992;2022-07-10T10:54:09;99055.09;;;19.32;59.44
50710;BME280;37033;49.994;21.992;2022-07-10T10:57:16;99049.07;;;19.46;58.96
50710;BME280;37033;49.994;21.992;2022-07-10T11:00:09;99056.19;;;19.56;58.84
50710;BME280;37033;49.994;21.992;2022-07-10T11:03:16;99057.45;;;19.64;58.59
50710;BME280;37033;49.994;21.992;2022-07-10T11:06:08;99067.48;;;19.64;56.78
50710;BME280;37033;49.994;21.992;2022-07-10T11:09:23;99063.51;;;19.41;56.95
50710;BME280;37033;49.994;21.992;2022-07-10T11:12:14;99061.20;;;19.40;57.91
50710;BME280;37033;49.994;21.992;2022-07-10T11:15:06;99071.49;;;19.47;58.29
50710;BME280;37033;49.994;21.992;2022-07-10T11:18:06;99066.61;;;19.45;57.90
50710;BME280;37033;49.994;21.992;2022-07-10T11:20:57;99074.48;;;19.38;58.07
50710;BME280;37033;49.994;21.992;2022-07-10T11:23:58;99079.45;;;19.38;58.60
50710;BME280;37033;49.994;21.992;2022-07-10T11:27:02;99100.90;;;19.12;58.99
50710;BME280;37033;49.994;21.992;2022-07-10T11:30:00;99098.45;;;18.57;60.54
50710;BME280;37033;49.994;21.992;2022-07-10T11:32:50;99113.30;;;18.13;62.12
50710;BME280;37033;49.994;21.992;2022-07-10T11:35:42;99116.97;;;17.84;62.56
50710;BME280;37033;49.994;21.992;2022-07-10T11:38:34;99111.59;;;17.55;63.64
50710;BME280;37033;49.994;21.992;2022-07-10T11:41:24;99114.73;;;17.47;63.85
50710;BME280;37033;49.994;21.992;2022-07-10T11:44:17;99116.66;;;17.32;63.26
50710;BME280;37033;49.994;21.992;2022-07-10T11:47:10;99114.65;;;17.26;63.66
50710;BME280;37033;49.994;21.992;2022-07-10T11:50:01;99125.11;;;17.24;64.40
50710;BME280;37033;49.994;21.992;2022-07-10T11:52:53;99124.05;;;17.26;64.80
50710;BME280;37033;49.994;21.992;2022-07-10T11:55:44;99133.45;;;17.34;64.97
50710;BME280;37033;49.994;21.992;2022-07-10T11:58:35;99139.05;;;17.34;65.07
50710;BME280;37033;49.994;21.992;2022-07-10T12:01:26;99140.23;;;17.32;65.15
50710;BME280;37033;49.994;21.992;2022-07-10T12:04:18;99143.06;;;17.34;65.00
50710;BME280;37033;49.994;21.992;2022-07-10T12:07:11;99142.37;;;17.32;64.65
50710;BME280;37033;49.994;21.992;2022-07-10T12:10:02;99137.30;;;17.29;63.95
50710;BME280;37033;49.994;21.992;2022-07-10T12:12:53;99130.26;;;17.34;64.02
50710;BME280;37033;49.994;21.992;2022-07-10T12:15:45;99124.90;;;17.47;64.00
50710;BME280;37033;49.994;21.992;2022-07-10T12:18:36;99124.95;;;17.52;63.37
50710;BME280;37033;49.994;21.992;2022-07-10T12:21:26;99127.42;;;17.51;62.38
50710;BME280;37033;49.994;21.992;2022-07-10T12:24:18;99125.27;;;17.52;61.57
50710;BME280;37033;49.994;21.992;2022-07-10T12:27:09;99122.16;;;17.53;61.19
50710;BME280;37033;49.994;21.992;2022-07-10T12:30:03;99126.40;;;17.64;60.97
50710;BME280;37033;49.994;21.992;2022-07-10T12:32:54;99130.61;;;17.69;59.64
50710;BME280;37033;49.994;21.992;2022-07-10T12:35:55;99132.88;;;17.68;59.37
50710;BME280;37033;49.994;21.992;2022-07-10T12:38:56;99129.45;;;17.78;59.49
50710;BME280;37033;49.994;21.992;2022-07-10T12:41:58;99131.48;;;17.92;58.12
50710;BME280;37033;49.994;21.992;2022-07-10T12:44:49;99129.05;;;17.93;57.34
50710;BME280;37033;49.994;21.992;2022-07-10T12:47:46;99123.96;;;18.07;56.80
50710;BME280;37033;49.994;21.992;2022-07-10T12:50:37;99119.10;;;18.16;55.85
50710;BME280;37033;49.994;21.992;2022-07-10T12:53:27;99115.73;;;18.42;56.40
50710;BME280;37033;49.994;21.992;2022-07-10T12:56:29;99115.69;;;18.74;55.57
50710;BME280;37033;49.994;21.992;2022-07-10T12:59:23;99112.81;;;19.00;54.62
50710;BME280;37033;49.994;21.992;2022-07-10T13:02:18;99105.60;;;19.37;53.21
50710;BME280;37033;49.994;21.992;2022-07-10T13:05:10;99101.16;;;19.62;53.18
50710;BME280;37033;49.994;21.992;2022-07-10T13:08:12;99094.11;;;20.05;52.81
50710;BME280;37033;49.994;21.992;2022-07-10T13:11:04;99090.80;;;20.35;51.45
50710;BME280;37033;49.994;21.992;2022-07-10T13:13:55;99091.32;;;20.60;51.19
50710;BME280;37033;49.994;21.992;2022-07-10T13:16:46;99095.77;;;20.74;49.43
50710;BME280;37033;49.994;21.992;2022-07-10T13:19:36;99091.77;;;20.78;49.18
50710;BME280;37033;49.994;21.992;2022-07-10T13:22:26;99087.23;;;20.83;48.41
50710;BME280;37033;49.994;21.992;2022-07-10T13:25:17;99084.00;;;20.93;48.92
50710;BME280;37033;49.994;21.992;2022-07-10T13:28:07;99083.11;;;21.19;49.35
50710;BME280;37033;49.994;21.992;2022-07-10T13:30:59;99082.22;;;21.49;49.04
50710;BME280;37033;49.994;21.992;2022-07-10T13:33:49;99080.79;;;21.67;47.64
50710;BME280;37033;49.994;21.992;2022-07-10T13:36:40;99077.33;;;21.69;48.02
50710;BME280;37033;49.994;21.992;2022-07-10T13:39:31;99078.83;;;21.81;47.85
50710;BME280;37033;49.994;21.992;2022-07-10T13:42:21;99082.77;;;21.84;46.90
50710;BME280;37033;49.994;21.992;2022-07-10T13:45:12;99076.12;;;21.77;47.09
50710;BME280;37033;49.994;21.992;2022-07-10T13:48:03;99075.91;;;21.83;46.85
50710;BME280;37033;49.994;21.992;2022-07-10T13:50:53;99074.37;;;21.82;46.53
50710;BME280;37033;49.994;21.992;2022-07-10T13:53:43;99072.45;;;21.94;47.27
50710;BME280;37033;49.994;21.992;2022-07-10T13:56:34;99068.03;;;22.05;46.10
50710;BME280;37033;49.994;21.992;2022-07-10T13:59:25;99066.73;;;21.95;46.86
50710;BME280;37033;49.994;21.992;2022-07-10T14:02:15;99063.93;;;22.01;45.42
50710;BME280;37033;49.994;21.992;2022-07-10T14:05:07;99061.61;;;21.81;45.85
50710;BME280;37033;49.994;21.992;2022-07-10T14:07:58;99061.63;;;21.97;46.52
50710;BME280;37033;49.994;21.992;2022-07-10T14:10:48;99053.52;;;22.21;46.85
50710;BME280;37033;49.994;21.992;2022-07-10T14:13:40;99054.09;;;22.37;46.30
50710;BME280;37033;49.994;21.992;2022-07-10T14:16:31;99054.38;;;22.57;45.76
50710;BME280;37033;49.994;21.992;2022-07-10T14:19:21;99048.76;;;22.67;44.89
50710;BME280;37033;49.994;21.992;2022-07-10T14:22:12;99045.19;;;22.84;44.45
50710;BME280;37033;49.994;21.992;2022-07-10T14:25:02;99047.39;;;22.93;43.74
50710;BME280;37033;49.994;21.992;2022-07-10T14:27:53;99048.02;;;22.97;43.22
50710;BME280;37033;49.994;21.992;2022-07-10T14:30:44;99047.91;;;22.82;43.40
50710;BME280;37033;49.994;21.992;2022-07-10T14:33:35;99046.80;;;22.66;43.16
50710;BME280;37033;49.994;21.992;2022-07-10T14:36:26;99053.11;;;22.44;43.75
50710;BME280;37033;49.994;21.992;2022-07-10T14:39:16;99046.40;;;22.39;44.38
50710;BME280;37033;49.994;21.992;2022-07-10T14:42:07;99042.34;;;22.36;44.07
50710;BME280;37033;49.994;21.992;2022-07-10T14:44:58;99039.53;;;22.39;44.65
50710;BME280;37033;49.994;21.992;2022-07-10T14:47:48;99034.97;;;22.63;44.39
50710;BME280;37033;49.994;21.992;2022-07-10T14:50:39;99030.63;;;22.79;44.43
50710;BME280;37033;49.994;21.992;2022-07-10T14:53:30;99027.20;;;23.16;44.13
50710;BME280;37033;49.994;21.992;2022-07-10T14:56:24;99035.08;;;23.47;43.81
50710;BME280;37033;49.994;21.992;2022-07-10T14:59:14;99036.43;;;23.75;43.77